Sicamous, Canada
Current Conditions -  °F | °C
As of 9:00 PM on Wednesday 26 Nov 2014 (Local Time) from CYRV Reporting Station
Light Snow Light Snow  
Wind Chill: 32°   Ceiling: 1000
Heat Index: 32°   Visibility: 1mi
Dew Point: 32°   Wind: 0mph
Humidity: 100%   Direction: NA
Pressure: 29.97"   Gusts: NA
Location:  50.83°N, 119°W
Report Text: CYRV 270500Z AUTO 00000KT 1SM -SN SCT004 OVC010 00/M00 A2997 RMK ICG PCPN 2.8MM PAST HR SLP168
Loading
Personal Weather Stations






























Interactive Weather Map New forecast layout! Learn more

10-Day Weather Forecast

Advertisements
Track Severe Weather on mobile